KIGQ

Lansing Municipal Airport

Chicago, Illinois, USA
METAR KIGQ 141255Z AUTO 01004KT 4SM -RA OVC005 04/04 A3017 RMK AO2 T00430043
Observed Flight Rules
Dec-14 @ 12:55 UTC (27 minutes ago) Instrument Flight Rules
Wind Visibility Clouds Conditions
10° at 4 knots 4 miles
  • Overcast at 500' AGL
  • Light Rain
Temperatures Readings
Current 4°C / 39°F
Dewpoint 4°C / 39°F
Humidity 100%
Altimeter 30.17" Hg
Pressure 1022 hPa
Elevation 188
METAR KIGQ 141255Z AUTO 01004KT 4SM -RA OVC005 04/04 A3017 RMK AO2 T00430043
Observed Flight Rules
Dec-14 @ 12:55 UTC
(27 minutes ago)
IFR
Wind Visibility
10° at 4 knots 4 miles
Clouds
  • Overcast at 500' AGL
Conditions
  • Light Rain
Temperature Dewpoint
4°C / 39°F 4°C / 39°F
Humidity Altimeter Pressure
100% 30.17" Hg 1022 hPa